CheckWX is a tool to help pilots better visualize weather data.  It is not intended as a substitute for an official pre-flight weather briefing.

04:52:24 UTC

KHCD METAR
Hutchinson Municipal-Butler Field Airport
Hutchinson, Minnesota, USA
Current

17 mins ago

KHCD 260435Z AUTO 13007KT 10SM OVC035 19/16 A2989 RMK AO2 T01900160
Observed
Aug-26 @ 04:35 UTC
Wind
  • 130° at 7 KTS
Visibility
10 SM
Flight Rules
VFR
Cloud Levels
  • Overcast at 3,500' AGL
Temperature
19°C / 66°F
Dewpoint
16°C / 61°F
Humidity
83%
Altimeter
29.89" Hg
Pressure
1012.22 hPa
Previous

36 mins ago

KHCD 260416Z AUTO 13007KT 10SM OVC035 19/16 A2989 RMK AO2 T01900161
Observed
Aug-26 @ 04:16 UTC
Wind
  • 130° at 7 KTS
Visibility
10 SM
Flight Rules
VFR
Cloud Levels
  • Overcast at 3,500' AGL
Temperature
19°C / 66°F
Dewpoint
16°C / 61°F
Humidity
83%
Altimeter
29.89" Hg
Pressure
1012.22 hPa
Previous

55 mins ago

KHCD 260357Z AUTO 13007KT 10SM BKN031 OVC039 19/16 A2990 RMK AO2 T01920161
Observed
Aug-26 @ 03:57 UTC
Wind
  • 130° at 7 KTS
Visibility
10 SM
Flight Rules
VFR
Cloud Levels
  • Broken at 3,100' AGL
  • Overcast at 3,900' AGL
Temperature
19°C / 66°F
Dewpoint
16°C / 61°F
Humidity
83%
Altimeter
29.9" Hg
Pressure
1012.52 hPa